Time;durP1;ratioP1;P1;durP2;ratioP2;P2;SDS_P1;SDS_P2;PMS_P1;PMS_P2;Temp;Humidity;BMP_temperature;BMP_pressure;BME280_temperature;BME280_humidity;BME280_pressure;Samples;Min_cycle;Max_cycle;Signal;HPM_P1;HPM_P2
2021/06/15 00:04:41;;;;;;;19.85;13.50;;;19.50;99.90;;;;;;12396330;28;20606;-39
2021/06/15 00:10:43;;;;;;;21.52;13.63;;;19.40;99.90;;;;;;12401012;28;20046;-40
2021/06/15 00:16:45;;;;;;;17.98;13.15;;;19.40;99.90;;;;;;12396792;28;20583;-40
2021/06/15 00:22:47;;;;;;;19.67;13.93;;;19.30;99.90;;;;;;12397533;28;20041;-40
2021/06/15 00:28:49;;;;;;;19.60;13.57;;;19.20;99.90;;;;;;12403033;28;20050;-39
2021/06/15 00:34:51;;;;;;;26.40;13.30;;;19.10;99.90;;;;;;12390449;28;20096;-40
2021/06/15 00:40:52;;;;;;;19.73;14.02;;;19.10;99.90;;;;;;12387976;28;20050;-39
2021/06/15 00:46:54;;;;;;;23.02;15.30;;;19.00;99.90;;;;;;12390221;28;20050;-40
2021/06/15 00:52:57;;;;;;;24.02;16.75;;;18.90;99.90;;;;;;12389910;28;20073;-39
2021/06/15 00:58:59;;;;;;;26.75;15.60;;;18.90;99.90;;;;;;12396176;28;20104;-39
2021/06/15 01:05:03;;;;;;;28.27;15.70;;;18.90;99.90;;;;;;12388327;28;20786;-39
2021/06/15 01:11:23;;;;;;;27.10;17.55;;;18.80;99.90;;;;;;12391828;28;20077;-39
2021/06/15 01:17:36;;;;;;;30.15;15.80;;;18.70;99.90;;;;;;12389528;28;20104;-40
2021/06/15 01:23:41;;;;;;;28.37;17.07;;;18.60;99.90;;;;;;12395415;28;20041;-39
2021/06/15 01:29:45;;;;;;;24.45;15.50;;;18.60;99.90;;;;;;12388934;28;20581;-39
2021/06/15 01:35:51;;;;;;;25.88;17.00;;;18.50;99.90;;;;;;12393483;28;20131;-39
2021/06/15 01:42:03;;;;;;;28.33;18.27;;;18.30;99.90;;;;;;12391964;28;20534;-40
2021/06/15 01:48:16;;;;;;;25.17;18.60;;;18.20;99.90;;;;;;12385045;28;20470;-40
2021/06/15 01:54:23;;;;;;;25.50;18.15;;;18.20;99.90;;;;;;12388875;28;20061;-39
2021/06/15 02:00:26;;;;;;;31.52;20.30;;;18.20;99.90;;;;;;12391116;28;20722;-39
2021/06/15 02:06:29;;;;;;;31.67;19.47;;;18.10;99.90;;;;;;12388938;28;20064;-39
2021/06/15 02:12:32;;;;;;;27.10;18.00;;;18.00;99.90;;;;;;12377968;28;20988;-39
2021/06/15 02:18:35;;;;;;;21.33;15.63;;;18.00;99.90;;;;;;12388556;28;20545;-40
2021/06/15 02:24:44;;;;;;;20.53;15.53;;;17.70;99.90;;;;;;12377825;28;20053;-40
2021/06/15 02:30:45;;;;;;;25.73;17.15;;;17.70;99.90;;;;;;12386046;28;20043;-40
2021/06/15 02:36:49;;;;;;;25.35;17.42;;;17.60;99.90;;;;;;12383928;28;20043;-39
2021/06/15 02:42:55;;;;;;;28.02;18.15;;;17.50;99.90;;;;;;12390064;28;20069;-41
2021/06/15 02:49:00;;;;;;;25.15;16.85;;;17.40;99.90;;;;;;12385324;28;20050;-40
2021/06/15 02:55:16;;;;;;;24.52;16.73;;;17.40;99.90;;;;;;12391637;28;20058;-39
2021/06/15 03:01:18;;;;;;;26.63;16.73;;;17.30;99.90;;;;;;12384841;28;20119;-39
2021/06/15 03:07:20;;;;;;;21.33;16.05;;;17.10;99.90;;;;;;12389892;28;20054;-39
2021/06/15 03:13:34;;;;;;;23.58;15.32;;;17.10;99.90;;;;;;12384181;28;20046;-40
2021/06/15 03:19:46;;;;;;;24.63;15.48;;;17.10;99.90;;;;;;12378791;28;20050;-39
2021/06/15 03:25:51;;;;;;;19.48;14.35;;;17.10;99.90;;;;;;12380385;28;20047;-39
2021/06/15 03:31:59;;;;;;;22.52;14.52;;;17.10;99.90;;;;;;12388708;28;20054;-40
2021/06/15 03:38:03;;;;;;;30.75;13.82;;;17.00;99.90;;;;;;12392054;28;20046;-39
2021/06/15 03:44:07;;;;;;;28.83;13.43;;;16.90;99.90;;;;;;12396737;28;20593;-39
2021/06/15 03:50:12;;;;;;;26.52;14.50;;;16.90;99.90;;;;;;12395501;28;20103;-39
2021/06/15 03:56:15;;;;;;;26.35;15.60;;;17.00;99.90;;;;;;12390381;28;20054;-39
2021/06/15 04:02:19;;;;;;;22.55;13.52;;;16.80;99.90;;;;;;12395570;28;20042;-39
2021/06/15 04:08:26;;;;;;;24.55;15.98;;;16.70;99.90;;;;;;12396267;28;20062;-39
2021/06/15 04:14:29;;;;;;;23.30;15.32;;;16.60;99.90;;;;;;12386705;28;20050;-40
2021/06/15 04:20:39;;;;;;;20.60;14.30;;;16.70;99.90;;;;;;12392793;28;20048;-40
2021/06/15 04:26:42;;;;;;;22.00;15.52;;;16.80;99.90;;;;;;12390997;28;20077;-39
2021/06/15 04:32:51;;;;;;;25.63;17.00;;;16.80;99.90;;;;;;12392015;28;20103;-39
2021/06/15 04:39:01;;;;;;;24.88;15.77;;;16.80;99.90;;;;;;12387296;28;20042;-40
2021/06/15 04:45:03;;;;;;;22.20;15.07;;;16.90;99.90;;;;;;12390908;28;20045;-40
2021/06/15 04:51:08;;;;;;;24.38;15.52;;;17.00;99.90;;;;;;12390052;28;20426;-40
2021/06/15 04:57:14;;;;;;;23.92;16.08;;;17.00;99.90;;;;;;12395730;28;20062;-39
2021/06/15 05:03:19;;;;;;;23.80;14.90;;;17.10;99.90;;;;;;12386099;28;20083;-39
2021/06/15 05:09:25;;;;;;;21.90;13.93;;;17.00;99.90;;;;;;12385294;28;20169;-39
2021/06/15 05:15:28;;;;;;;19.55;14.38;;;17.10;99.90;;;;;;12387637;28;20111;-39
2021/06/15 05:21:36;;;;;;;22.10;14.23;;;17.00;99.90;;;;;;12386036;28;20494;-39
2021/06/15 05:27:38;;;;;;;19.92;12.85;;;16.90;99.90;;;;;;12388016;28;20045;-39
2021/06/15 05:33:40;;;;;;;19.33;10.73;;;16.90;99.90;;;;;;12383190;28;20096;-40
2021/06/15 05:39:42;;;;;;;17.92;8.80;;;16.80;99.90;;;;;;12388345;28;20137;-40
2021/06/15 05:45:45;;;;;;;18.77;9.70;;;16.60;99.90;;;;;;12389879;28;20606;-39
2021/06/15 05:51:47;;;;;;;19.63;9.20;;;16.60;99.90;;;;;;12396467;28;20077;-40
2021/06/15 05:57:49;;;;;;;21.65;10.30;;;16.70;99.90;;;;;;12390805;28;20057;-40
2021/06/15 06:04:14;;;;;;;21.52;10.50;;;16.80;99.90;;;;;;12378752;28;21302;-40
2021/06/15 06:10:13;;;;;;;19.13;9.88;;;16.80;99.90;;;;;;12387525;28;20057;-40
2021/06/15 06:16:15;;;;;;;15.35;8.80;;;16.90;99.90;;;;;;12388932;28;20085;-40
2021/06/15 06:22:18;;;;;;;17.27;8.65;;;17.10;99.90;;;;;;12389999;28;20042;-40
2021/06/15 06:28:20;;;;;;;16.75;8.93;;;17.20;99.90;;;;;;12390961;28;20150;-40
2021/06/15 06:34:22;;;;;;;19.90;9.10;;;17.30;99.90;;;;;;12390889;28;20058;-40
2021/06/15 06:40:25;;;;;;;11.45;7.25;;;17.20;99.90;;;;;;12387634;28;20069;-39
2021/06/15 06:46:27;;;;;;;12.73;6.13;;;17.20;99.90;;;;;;12388862;28;20050;-40
2021/06/15 06:52:30;;;;;;;14.38;7.95;;;17.30;99.90;;;;;;12384582;28;20476;-40
2021/06/15 06:58:33;;;;;;;13.43;6.80;;;17.20;99.90;;;;;;12389629;28;20053;-40
2021/06/15 07:04:35;;;;;;;13.07;6.57;;;17.20;99.90;;;;;;12381564;28;20165;-39
2021/06/15 07:10:37;;;;;;;14.70;7.07;;;17.40;99.90;;;;;;12384395;28;20447;-41
2021/06/15 07:16:38;;;;;;;16.83;7.72;;;17.40;99.90;;;;;;12386520;28;20058;-40
2021/06/15 07:22:40;;;;;;;16.50;7.25;;;17.30;99.90;;;;;;12385019;28;20050;-42
2021/06/15 07:28:42;;;;;;;11.32;7.45;;;17.40;99.90;;;;;;12379297;28;20766;-40
2021/06/15 07:34:44;;;;;;;11.77;8.82;;;17.50;99.90;;;;;;12387668;28;20104;-41
2021/06/15 07:40:46;;;;;;;16.02;9.40;;;17.40;99.90;;;;;;12380038;28;20054;-39
2021/06/15 07:46:47;;;;;;;15.52;8.88;;;17.60;99.90;;;;;;12381398;28;20607;-39
2021/06/15 07:52:50;;;;;;;13.80;9.65;;;17.60;99.90;;;;;;12383501;28;20051;-41
2021/06/15 07:58:52;;;;;;;18.98;9.88;;;17.40;99.90;;;;;;12378952;28;20107;-41
2021/06/15 08:04:54;;;;;;;16.27;9.27;;;17.30;99.90;;;;;;12380226;28;20433;-39
2021/06/15 08:10:56;;;;;;;14.52;8.38;;;17.20;99.90;;;;;;12383723;28;20108;-40
2021/06/15 08:16:59;;;;;;;15.38;8.85;;;17.20;99.90;;;;;;12394681;28;20053;-41
2021/06/15 08:23:01;;;;;;;16.27;9.23;;;17.30;99.90;;;;;;12388928;28;20046;-40
2021/06/15 08:29:04;;;;;;;14.27;8.18;;;17.30;99.90;;;;;;12384816;28;20050;-40
2021/06/15 08:35:08;;;;;;;15.77;8.25;;;17.50;99.90;;;;;;12389802;28;20113;-40
2021/06/15 08:41:10;;;;;;;11.10;6.78;;;17.60;99.90;;;;;;12380571;28;20058;-41
2021/06/15 08:47:16;;;;;;;11.77;7.32;;;17.90;99.90;;;;;;12388573;28;20443;-40
2021/06/15 08:53:18;;;;;;;13.50;7.90;;;17.90;99.90;;;;;;12385344;28;20068;-40
2021/06/15 08:59:26;;;;;;;14.00;5.95;;;17.90;99.90;;;;;;12381781;28;20064;-41
2021/06/15 09:05:28;;;;;;;13.63;6.97;;;18.00;99.90;;;;;;12386375;28;20054;-39
2021/06/15 09:11:50;;;;;;;13.35;6.32;;;18.20;99.90;;;;;;12383145;28;20456;-39
2021/06/15 09:17:52;;;;;;;13.70;5.22;;;18.30;99.90;;;;;;12386056;28;20050;-40
2021/06/15 09:24:04;;;;;;;9.95;4.95;;;18.20;99.90;;;;;;12388800;28;20080;-41
2021/06/15 09:30:08;;;;;;;11.50;4.43;;;18.30;99.90;;;;;;12391182;28;20050;-41
2021/06/15 09:36:13;;;;;;;8.82;3.65;;;18.90;99.90;;;;;;12386642;28;20225;-41
2021/06/15 09:42:15;;;;;;;11.55;3.58;;;18.90;99.90;;;;;;12387965;28;20053;-39
2021/06/15 09:48:34;;;;;;;8.48;3.20;;;19.10;99.90;;;;;;12386873;28;20100;-40
2021/06/15 09:54:40;;;;;;;8.10;3.75;;;19.00;99.90;;;;;;12384646;28;20142;-40
2021/06/15 10:00:50;;;;;;;8.00;3.00;;;19.30;99.90;;;;;;12383613;28;20068;-41
2021/06/15 10:06:55;;;;;;;9.15;3.40;;;19.40;99.90;;;;;;12386364;28;20093;-39
2021/06/15 10:12:57;;;;;;;7.28;3.00;;;19.40;99.90;;;;;;12384432;28;20557;-40
2021/06/15 10:19:00;;;;;;;11.70;3.47;;;19.80;99.90;;;;;;12379608;28;20062;-39
2021/06/15 10:25:04;;;;;;;8.17;2.50;;;20.30;99.90;;;;;;12380749;28;20045;-40
2021/06/15 10:31:06;;;;;;;9.48;2.88;;;20.50;99.90;;;;;;12386546;28;20157;-40
2021/06/15 10:37:08;;;;;;;9.45;2.70;;;20.40;99.90;;;;;;12386300;28;20061;-39
2021/06/15 10:43:22;;;;;;;6.53;2.17;;;20.60;99.90;;;;;;12378330;28;20076;-42
2021/06/15 10:49:24;;;;;;;7.20;1.70;;;20.90;99.90;;;;;;12377207;28;20061;-40
2021/06/15 10:55:53;;;;;;;7.32;2.30;;;21.00;99.90;;;;;;12385092;28;20053;-40
2021/06/15 11:02:08;;;;;;;8.00;2.25;;;20.90;99.90;;;;;;12386615;28;20054;-41
2021/06/15 11:08:16;;;;;;;7.95;1.85;;;21.50;99.90;;;;;;12388468;28;20049;-41
2021/06/15 11:14:20;;;;;;;6.65;2.13;;;21.60;99.90;;;;;;12381827;28;20052;-42
2021/06/15 11:20:40;;;;;;;5.50;1.77;;;22.10;99.90;;;;;;12374717;28;20061;-40
2021/06/15 11:26:47;;;;;;;7.10;2.25;;;22.00;99.90;;;;;;12377866;28;20421;-39
2021/06/15 11:33:03;;;;;;;4.35;1.52;;;22.30;99.90;;;;;;12379040;28;20135;-41
2021/06/15 11:39:29;;;;;;;6.75;1.73;;;22.90;99.90;;;;;;12383592;28;20046;-40
2021/06/15 11:45:34;;;;;;;10.15;1.80;;;22.90;99.90;;;;;;12380299;28;20078;-40
2021/06/15 11:51:36;;;;;;;7.60;1.58;;;22.60;99.90;;;;;;12378674;28;20495;-41
2021/06/15 11:57:39;;;;;;;6.68;1.42;;;22.70;99.90;;;;;;12386450;28;20054;-42
2021/06/15 12:03:46;;;;;;;9.33;1.77;;;23.00;99.90;;;;;;12393111;28;20041;-40
2021/06/15 12:10:13;;;;;;;7.45;1.88;;;23.20;99.90;;;;;;12392459;28;20050;-41
2021/06/15 12:16:29;;;;;;;5.75;1.45;;;22.80;99.90;;;;;;12433227;28;20738;-41
2021/06/15 12:22:32;;;;;;;5.90;1.70;;;23.40;99.90;;;;;;12433783;28;20516;-42
2021/06/15 12:28:35;;;;;;;7.65;2.03;;;23.70;99.90;;;;;;12440373;28;20049;-41
2021/06/15 12:34:37;;;;;;;;;;;23.50;99.90;;;;;;12444510;28;20042;-41
2021/06/15 12:40:41;;;;;;;6.10;1.65;;;23.80;99.90;;;;;;12441381;28;20723;-40
2021/06/15 12:46:44;;;;;;;4.55;1.50;;;24.00;99.90;;;;;;12442647;28;20092;-40
2021/06/15 12:52:46;;;;;;;8.70;1.83;;;24.10;99.90;;;;;;12442122;28;20054;-40
2021/06/15 12:58:51;;;;;;;5.95;1.13;;;24.10;99.90;;;;;;12442649;28;20041;-41
2021/06/15 13:04:56;;;;;;;4.13;1.23;;;24.10;99.90;;;;;;12443224;28;20160;-42
2021/06/15 13:11:00;;;;;;;4.15;1.25;;;24.40;99.90;;;;;;12435530;28;20126;-44
2021/06/15 13:17:04;;;;;;;4.50;1.38;;;24.60;99.90;;;;;;12439255;28;20050;-40
2021/06/15 13:23:21;;;;;;;4.00;1.00;;;23.70;99.90;;;;;;12439033;28;20057;-40
2021/06/15 13:29:29;;;;;;;5.85;1.20;;;23.20;99.90;;;;;;12442067;28;20144;-40
2021/06/15 13:35:52;;;;;;;6.55;1.13;;;24.10;99.90;;;;;;12441821;28;20071;-40
2021/06/15 13:41:58;;;;;;;4.80;0.90;;;24.60;99.90;;;;;;12439295;28;20460;-40
2021/06/15 13:48:00;;;;;;;4.18;1.17;;;24.70;99.90;;;;;;12438117;28;20053;-42
2021/06/15 13:54:02;;;;;;;3.05;1.05;;;24.70;99.90;;;;;;12439246;28;20053;-41
2021/06/15 14:00:11;;;;;;;4.75;1.40;;;24.60;99.90;;;;;;12440812;28;20054;-40
2021/06/15 14:06:13;;;;;;;4.40;0.95;;;24.40;99.90;;;;;;12436559;28;20062;-40
2021/06/15 14:12:15;;;;;;;7.57;1.40;;;24.30;99.90;;;;;;12441075;28;20072;-40
2021/06/15 14:18:17;;;;;;;3.50;0.80;;;24.30;99.90;;;;;;12440072;28;20069;-42
2021/06/15 14:24:18;;;;;;;4.82;1.45;;;24.40;99.90;;;;;;12428356;28;20124;-42
2021/06/15 14:30:23;;;;;;;4.75;0.80;;;24.60;99.90;;;;;;12436004;28;20083;-40
2021/06/15 14:36:25;;;;;;;4.15;0.95;;;24.40;99.90;;;;;;12432954;28;20053;-42
2021/06/15 14:42:27;;;;;;;4.07;0.90;;;24.40;99.90;;;;;;12429616;28;20091;-40
2021/06/15 14:48:31;;;;;;;5.43;0.93;;;24.30;99.90;;;;;;12444164;28;20041;-40
2021/06/15 14:54:36;;;;;;;5.70;1.00;;;24.40;99.90;;;;;;12435652;28;20103;-40
2021/06/15 15:00:38;;;;;;;7.35;1.48;;;24.10;99.90;;;;;;12429842;28;20046;-40
2021/06/15 15:06:40;;;;;;;4.30;1.23;;;24.50;99.90;;;;;;12434466;28;20687;-40
2021/06/15 15:12:42;;;;;;;7.10;1.20;;;24.60;99.90;;;;;;12427666;28;20107;-40
2021/06/15 15:18:45;;;;;;;3.92;1.02;;;24.50;99.90;;;;;;12432148;28;20054;-41
2021/06/15 15:24:47;;;;;;;3.93;1.00;;;24.50;99.90;;;;;;12437539;28;20137;-40
2021/06/15 15:30:49;;;;;;;6.80;1.40;;;24.50;99.90;;;;;;12431421;28;20054;-40
2021/06/15 15:36:50;;;;;;;5.05;0.98;;;24.70;99.90;;;;;;12432972;28;20849;-41
2021/06/15 15:42:53;;;;;;;4.38;1.00;;;24.60;99.90;;;;;;12441608;28;20057;-41
2021/06/15 15:48:56;;;;;;;4.30;0.90;;;24.60;99.90;;;;;;12439770;28;20053;-40
2021/06/15 15:54:57;;;;;;;3.80;1.10;;;24.60;99.90;;;;;;12430674;28;20443;-42
2021/06/15 16:00:59;;;;;;;4.50;1.17;;;25.00;99.90;;;;;;12432392;28;20046;-41
2021/06/15 16:07:01;;;;;;;6.68;1.13;;;24.90;99.90;;;;;;12432525;28;20527;-41
2021/06/15 16:13:06;;;;;;;8.18;1.70;;;24.60;99.90;;;;;;12433396;28;20133;-41
2021/06/15 16:19:07;;;;;;;7.47;0.98;;;24.60;99.90;;;;;;12433348;28;20053;-40
2021/06/15 16:25:11;;;;;;;4.32;0.90;;;24.70;99.90;;;;;;12437059;28;20068;-41
2021/06/15 16:31:14;;;;;;;4.53;1.15;;;24.70;99.90;;;;;;12434591;28;20050;-41
2021/06/15 16:37:17;;;;;;;3.22;0.90;;;24.60;99.90;;;;;;12435632;28;20054;-41
2021/06/15 16:43:20;;;;;;;4.07;1.00;;;24.50;99.90;;;;;;12429257;28;20133;-40
2021/06/15 16:49:23;;;;;;;4.97;1.10;;;24.80;99.90;;;;;;12443900;28;20049;-40
2021/06/15 16:55:25;;;;;;;5.93;1.43;;;25.00;99.90;;;;;;12433293;28;20099;-41
2021/06/15 17:01:27;;;;;;;4.25;0.90;;;25.00;99.90;;;;;;12445167;28;20677;-40
2021/06/15 17:07:29;;;;;;;4.68;1.02;;;25.10;99.90;;;;;;12442030;28;20061;-40
2021/06/15 17:13:30;;;;;;;5.50;1.10;;;24.90;99.90;;;;;;12443099;28;20567;-40
2021/06/15 17:19:34;;;;;;;3.40;0.90;;;25.00;99.90;;;;;;12435325;28;20050;-40
2021/06/15 17:25:36;;;;;;;3.00;0.90;;;25.10;99.90;;;;;;12440203;28;21032;-41
2021/06/15 17:31:38;;;;;;;4.10;0.90;;;25.10;99.90;;;;;;12435806;28;20052;-40
2021/06/15 17:37:40;;;;;;;4.57;1.02;;;25.10;99.90;;;;;;12436692;28;20049;-42
2021/06/15 17:43:42;;;;;;;6.40;1.10;;;25.20;99.90;;;;;;12447610;28;20173;-41
2021/06/15 17:49:44;;;;;;;4.75;1.10;;;25.40;99.90;;;;;;12442713;28;20148;-40
2021/06/15 17:55:46;;;;;;;4.90;1.20;;;25.30;99.90;;;;;;12442712;28;20119;-40
2021/06/15 18:01:48;;;;;;;4.97;0.93;;;25.10;99.90;;;;;;12440043;28;20111;-40
2021/06/15 18:07:53;;;;;;;7.28;0.93;;;24.60;99.90;;;;;;12443893;28;20099;-40
2021/06/15 18:13:55;;;;;;;6.95;1.00;;;24.30;99.90;;;;;;12444431;28;20050;-41
2021/06/15 18:19:57;;;;;;;3.30;1.10;;;23.70;99.90;;;;;;12435983;28;20140;-40
2021/06/15 18:25:59;;;;;;;5.93;1.30;;;23.50;99.90;;;;;;12437738;28;20046;-40
2021/06/15 18:32:01;;;;;;;5.95;1.25;;;23.30;99.90;;;;;;12435122;28;20049;-41
2021/06/15 18:38:04;;;;;;;5.45;1.25;;;23.20;99.90;;;;;;12437632;28;20137;-42
2021/06/15 18:44:06;;;;;;;10.98;1.90;;;22.80;99.90;;;;;;12438190;28;20135;-40
2021/06/15 18:50:10;;;;;;;5.55;1.50;;;22.40;99.90;;;;;;12437178;28;20739;-41
2021/06/15 18:56:17;;;;;;;10.18;1.60;;;21.80;99.90;;;;;;12429867;28;20286;-40
2021/06/15 19:02:19;;;;;;;5.80;1.33;;;21.40;99.90;;;;;;12439115;28;20059;-40
2021/06/15 19:08:21;;;;;;;5.80;1.50;;;21.00;99.90;;;;;;12437464;28;20114;-40
2021/06/15 19:14:23;;;;;;;5.68;1.70;;;20.90;99.90;;;;;;12437158;28;20293;-42
2021/06/15 19:20:25;;;;;;;6.35;1.52;;;20.80;99.90;;;;;;12436884;28;20132;-40
2021/06/15 19:26:26;;;;;;;7.90;1.70;;;20.70;99.90;;;;;;12439002;28;20611;-40
2021/06/15 19:32:28;;;;;;;5.97;1.25;;;20.60;99.90;;;;;;12433838;28;20042;-40
2021/06/15 19:38:32;;;;;;;10.00;2.67;;;20.40;99.90;;;;;;12430055;28;20049;-40
2021/06/15 19:44:34;;;;;;;8.52;1.75;;;20.10;99.90;;;;;;12437807;28;20115;-40
2021/06/15 19:50:36;;;;;;;10.05;2.67;;;19.90;99.90;;;;;;12429874;28;20661;-41
2021/06/15 19:56:48;;;;;;;13.07;2.58;;;19.90;99.90;;;;;;12435188;28;20057;-42
2021/06/15 20:02:51;;;;;;;8.23;1.65;;;19.50;99.90;;;;;;12435290;28;20067;-39
2021/06/15 20:08:55;;;;;;;9.02;3.05;;;19.40;99.90;;;;;;12434785;28;20146;-39
2021/06/15 20:14:58;;;;;;;7.82;2.22;;;19.20;99.90;;;;;;12437006;28;20050;-40
2021/06/15 20:21:00;;;;;;;7.35;1.50;;;19.30;99.90;;;;;;12444620;28;20099;-40
2021/06/15 20:27:02;;;;;;;7.18;1.65;;;19.10;99.90;;;;;;12451555;28;20092;-41
2021/06/15 20:33:05;;;;;;;6.00;1.70;;;19.20;99.90;;;;;;12447511;28;20053;-41
2021/06/15 20:39:08;;;;;;;6.25;1.60;;;19.00;99.90;;;;;;12450223;28;20042;-40
2021/06/15 20:45:11;;;;;;;7.88;1.70;;;18.90;99.90;;;;;;12443172;28;20133;-39
2021/06/15 20:51:13;;;;;;;7.95;2.15;;;18.70;99.90;;;;;;12438706;28;20435;-41
2021/06/15 20:57:14;;;;;;;9.38;2.10;;;18.50;99.90;;;;;;12440999;28;20045;-40
2021/06/15 21:03:17;;;;;;;6.40;2.00;;;18.50;99.90;;;;;;12442185;28;20049;-41
2021/06/15 21:09:21;;;;;;;11.25;2.00;;;18.60;99.90;;;;;;12444766;28;20549;-40
2021/06/15 21:15:23;;;;;;;10.70;1.70;;;18.50;99.90;;;;;;12436518;28;20464;-40
2021/06/15 21:21:27;;;;;;;5.80;1.52;;;18.40;99.90;;;;;;12446394;28;20087;-40
2021/06/15 21:27:28;;;;;;;7.05;1.50;;;18.30;99.90;;;;;;12446934;28;20895;-40
2021/06/15 21:33:32;;;;;;;11.65;1.63;;;18.20;99.90;;;;;;12442157;28;20077;-40
2021/06/15 21:39:35;;;;;;;9.18;1.85;;;18.10;99.90;;;;;;12439207;28;20104;-37
2021/06/15 21:45:37;;;;;;;4.93;1.55;;;18.20;99.90;;;;;;12443298;28;20118;-40
2021/06/15 21:51:39;;;;;;;6.70;1.90;;;;;;;;;;12437901;28;20099;-39
2021/06/15 21:57:41;;;;;;;5.63;1.63;;;18.00;99.90;;;;;;12445894;28;20471;-40
2021/06/15 22:03:43;;;;;;;8.82;2.10;;;18.10;99.90;;;;;;12436645;28;20107;-40
2021/06/15 22:09:45;;;;;;;7.15;1.95;;;17.80;99.90;;;;;;12450140;28;20091;-39
2021/06/15 22:15:47;;;;;;;8.15;2.05;;;17.60;99.90;;;;;;12431847;28;20437;-39
2021/06/15 22:21:49;;;;;;;5.70;1.63;;;17.60;99.90;;;;;;12442032;28;20058;-41
2021/06/15 22:27:53;;;;;;;5.68;1.42;;;17.50;99.90;;;;;;12436126;28;20058;-39
2021/06/15 22:33:55;;;;;;;7.70;2.00;;;17.60;99.90;;;;;;12438957;28;20114;-39
2021/06/15 22:39:57;;;;;;;5.18;1.75;;;17.50;99.90;;;;;;12441081;28;20118;-39
2021/06/15 22:45:58;;;;;;;6.03;1.67;;;17.40;99.90;;;;;;12438219;28;20053;-41
2021/06/15 22:52:00;;;;;;;9.77;1.80;;;17.40;99.90;;;;;;12431442;28;20050;-39
2021/06/15 22:58:03;;;;;;;6.88;1.90;;;17.30;99.90;;;;;;12432315;28;20146;-39
2021/06/15 23:04:05;;;;;;;7.78;1.77;;;17.20;99.90;;;;;;12439234;28;20046;-41
2021/06/15 23:10:09;;;;;;;6.65;1.80;;;17.10;99.90;;;;;;12436721;28;20111;-39
2021/06/15 23:16:13;;;;;;;8.05;2.15;;;17.20;99.90;;;;;;12429752;28;20406;-39
2021/06/15 23:22:14;;;;;;;9.82;1.70;;;17.20;99.90;;;;;;12428540;28;20131;-40
2021/06/15 23:28:16;;;;;;;9.05;1.80;;;17.20;99.90;;;;;;12442089;28;20145;-39
2021/06/15 23:34:31;;;;;;;9.65;2.05;;;17.30;99.90;;;;;;12428681;28;20619;-39
2021/06/15 23:40:34;;;;;;;6.80;1.70;;;17.40;99.90;;;;;;12441772;28;22055;-39
2021/06/15 23:46:36;;;;;;;7.68;1.73;;;17.20;99.90;;;;;;12436600;28;20050;-39
2021/06/15 23:52:38;;;;;;;12.10;1.77;;;17.00;99.90;;;;;;12434119;28;20061;-39
2021/06/15 23:58:39;;;;;;;7.55;1.90;;;16.80;99.90;;;;;;12448184;28;20111;-39
